Latest Weather Observations for Mount Wellington

IDT60801

Issued at 12:05 pm EST Monday 22 September 2014 (issued every 30 minutes, with the page automatically refreshed every 10 minutes)

About weather observations | Map of weather stations | Latest weather observations for TAS | Other Formats
Station Details ID: 094087 Name: MOUNT WELLINGTON Lat: -42.90 Lon: 147.24 Height: 1260.47 m
Data from the previous 72 hours. | See also: Recent months at Mount Wellington
Date/Time
EST
Temp
°C
App
Temp
°C
Dew
Point
Rel
Hum
%
Delta-T
°C
Wind Press
QNH
hPa
Press
MSL
hPa
Rain
since 9 am
mm
Dir
 
Spd
km/h
Gust
km/h
Spd
kts
Gust
kts
22/12:00pm 13.3 4.7 -3.9 30 7.1 WNW 32 39 17 21 - - 0.0
22/11:30am 13.6 4.2 -6.6 24 7.9 WNW 35 52 19 28 - - 0.0
22/11:00am 13.4 3.2 -6.7 24 7.8 WNW 39 50 21 27 - - 0.0
22/10:30am 13.1 2.5 -7.5 23 7.8 WNW 41 56 22 30 - - 0.0
22/10:00am 12.7 1.6 -8.4 22 7.8 WNW 43 52 23 28 - - 0.0
22/09:30am 12.4 2.1 -8.1 23 7.6 WNW 39 48 21 26 - - 0.0
22/09:00am 12.5 2.1 -9.8 20 8.0 WNW 39 48 21 26 - - 0.0
22/08:30am 11.9 1.2 -13.1 16 8.2 WNW 39 50 21 27 - - 0.0
22/08:00am 11.0 0.5 -16.3 13 8.3 WNW 37 44 20 24 - - 0.0
22/07:30am 10.2 0.7 -16.1 14 7.9 WNW 32 39 17 21 - - 0.0
22/07:00am 9.7 0.4 -19.3 11 8.1 WNW 30 35 16 19 - - 0.0
22/06:30am 9.9 0.4 -26.0 6 8.6 NW 30 35 16 19 - - 0.0
22/06:00am 9.5 0.0 -26.3 6 8.5 NW 30 35 16 19 - - 0.0
22/05:30am 9.3 0.6 -26.4 6 8.4 NW 26 33 14 18 - - 0.0
22/05:00am 8.7 0.0 -26.8 6 8.2 NW 26 30 14 16 - - 0.0
22/04:30am 8.5 0.2 -25.3 7 8.0 WNW 24 30 13 16 - - 0.0
22/04:00am 7.5 -1.1 -22.1 10 7.4 WNW 26 28 14 15 - - 0.0
22/03:30am 8.1 -0.2 -24.1 8 7.8 NW 24 28 13 15 - - 0.0
22/03:00am 7.4 0.1 -22.2 10 7.4 WNW 19 22 10 12 - - 0.0
22/02:30am 7.7 0.8 -24.4 8 7.7 WNW 17 19 9 10 - - 0.0
22/02:00am 7.5 1.0 -21.0 11 7.3 WNW 15 19 8 10 - - 0.0
22/01:30am 7.8 1.6 -23.1 9 7.6 WNW 13 19 7 10 - - 0.0
22/01:00am 8.0 1.8 -24.2 8 7.8 W 13 19 7 10 - - 0.0
22/12:30am 8.3 3.0 -21.5 10 7.7 WNW 9 17 5 9 - - 0.0
22/12:00am 6.6 0.3 -16.0 18 6.4 W 15 17 8 9 - - 0.0
 
Date/Time
EST
Temp
°C
App
Temp
°C
Dew
Point
Rel
Hum
%
Delta-T
°C
Wind Press
QNH
hPa
Press
MSL
hPa
Rain
since 9 am
mm
Dir
 
Spd
km/h
Gust
km/h
Spd
kts
Gust
kts
21/11:30pm 6.1 0.0 -12.9 24 5.8 WNW 15 19 8 10 - - 0.0
21/11:00pm 5.9 -0.9 -12.1 26 5.6 NW 19 22 10 12 - - 0.0
21/10:30pm 5.4 -0.9 -10.3 31 5.0 WNW 17 20 9 11 - - 0.0
21/10:00pm 5.1 -0.8 -9.4 34 4.8 WNW 15 17 8 9 - - 0.0
21/09:30pm 4.8 -0.6 -8.3 38 4.4 WNW 13 15 7 8 - - 0.0
21/09:00pm 3.8 -1.6 -4.6 54 3.1 W 15 17 8 9 - - 0.0
21/08:30pm 4.6 0.1 -6.6 44 3.9 WSW 9 11 5 6 - - 0.0
21/08:00pm 5.2 -0.1 -7.6 39 4.4 SW 13 17 7 9 - - 0.0
21/07:30pm 5.0 -1.2 -5.1 48 3.7 SW 19 20 10 11 - - 0.0
21/07:00pm 5.3 -1.0 -3.7 52 3.4 SW 20 22 11 12 - - 0.0
21/06:30pm 5.4 -1.8 -2.4 57 3.1 SW 26 30 14 16 - - 0.0
21/06:00pm 6.2 -1.3 -1.2 59 3.0 SW 28 30 15 16 - - 0.0
21/05:30pm 7.1 0.0 -1.1 56 3.4 SW 26 30 14 16 - - 0.0
21/05:00pm 8.1 2.3 0.1 57 3.4 SW 20 26 11 14 - - 0.0
21/04:30pm 8.3 3.2 0.5 58 3.4 WSW 17 22 9 12 - - 0.0
21/04:00pm 8.8 2.0 -2.2 46 4.5 WSW 24 30 13 16 - - 0.0
21/03:30pm 9.1 2.1 -0.2 52 4.0 WSW 26 33 14 18 - - 0.0
21/03:00pm 9.5 3.6 -0.9 48 4.4 WSW 20 28 11 15 - - 0.0
21/02:30pm 9.7 2.6 -1.1 47 4.6 WSW 26 33 14 18 - - 0.0
21/02:00pm 9.8 2.3 -1.3 46 4.7 WSW 28 39 15 21 - - 0.0
21/01:30pm 9.6 1.6 -2.3 43 4.9 SW 30 37 16 20 - - 0.0
21/01:00pm 9.4 1.3 -3.5 40 5.1 WSW 30 39 16 21 - - 0.0
21/12:30pm 8.9 1.0 -1.8 47 4.4 WSW 30 37 16 20 - - 0.0
21/12:00pm 9.0 1.5 -1.4 48 4.3 WSW 28 37 15 20 - - 0.0
21/11:30am 8.4 0.7 -3.1 44 4.6 WSW 28 35 15 19 - - 0.0
21/11:00am 8.2 -0.6 -4.2 41 4.8 SW 33 41 18 22 - - 0.0
21/10:30am 7.5 -2.4 -3.6 45 4.3 SW 39 46 21 25 - - 0.0
21/10:00am 6.3 -4.1 -2.1 55 3.4 SW 43 50 23 27 - - 0.0
21/09:30am 5.3 -6.5 -2.5 57 3.0 SW 50 59 27 32 - - 0.0
21/09:00am 3.7 -8.5 0.1 77 1.5 SW 54 67 29 36 - - 0.0
21/08:30am 2.8 -9.2 1.3 90 0.6 SW 54 63 29 34 - - 0.0
21/08:00am 2.5 -9.9 1.6 94 0.4 SW 56 63 30 34 - - 0.0
21/07:30am 2.3 -11.0 2.0 98 0.1 SW 61 69 33 37 - - 0.0
21/07:00am 2.2 -11.8 1.9 98 0.1 SW 65 76 35 41 - - 0.0
21/06:30am 2.3 -11.7 2.0 98 0.1 SW 65 76 35 41 - - 0.0
21/06:00am 2.2 -11.5 1.9 98 0.1 WSW 63 72 34 39 - - 0.0
21/05:30am 2.4 -11.2 2.1 98 0.1 WSW 63 78 34 42 - - 0.0
21/05:00am 2.3 -12.1 1.9 97 0.2 WSW 67 82 36 44 - - 0.0
21/04:51am 2.2 -11.9 1.8 97 0.2 WSW 65 85 35 46 - - 0.0
21/04:30am 2.2 -11.5 1.8 97 0.2 WSW 63 78 34 42 - - 0.0
21/04:00am 2.0 -12.8 1.7 98 0.1 WSW 69 82 37 44 - - 0.0
21/03:30am 1.7 -12.0 1.4 98 0.1 WSW 63 80 34 43 - - 0.0
21/03:00am 1.6 -13.3 1.3 98 0.1 WSW 69 80 37 43 - - 0.0
21/02:30am 1.4 -12.0 1.0 97 0.2 WSW 61 74 33 40 - - 0.0
21/02:00am 1.1 -11.6 0.7 97 0.2 WSW 57 72 31 39 - - 0.0
21/01:30am 0.8 -9.5 0.4 97 0.2 WSW 44 59 24 32 - - 0.0
21/01:21am 0.7 -9.4 0.1 96 0.2 WSW 43 52 23 28 - - 0.0
21/01:00am 0.6 -13.4 -0.1 95 0.3 WSW 63 76 34 41 - - 0.0
21/12:30am 0.5 -13.5 -0.5 93 0.4 WSW 63 74 34 40 - - 0.0
21/12:00am 0.6 -13.8 -0.7 91 0.5 WSW 65 76 35 41 - - 0.0
 
Date/Time
EST
Temp
°C
App
Temp
°C
Dew
Point
Rel
Hum
%
Delta-T
°C
Wind Press
QNH
hPa
Press
MSL
hPa
Rain
since 9 am
mm
Dir
 
Spd
km/h
Gust
km/h
Spd
kts
Gust
kts
20/11:30pm 0.5 -13.5 -0.5 93 0.4 WSW 63 74 34 40 - - 0.0
20/11:00pm 0.3 -13.0 -0.5 94 0.3 WSW 59 72 32 39 - - 0.0
20/10:30pm 0.3 -11.6 -0.4 95 0.3 WSW 52 70 28 38 - - 0.0
20/10:29pm 0.3 -11.2 -0.3 96 0.2 WSW 50 70 27 38 - - 0.0
20/10:00pm 0.6 -11.3 0.0 96 0.2 WSW 52 61 28 33 - - 0.0
20/09:30pm 0.6 -11.7 -0.1 95 0.3 WSW 54 65 29 35 - - 0.0
20/09:00pm 0.4 -12.3 -0.5 94 0.4 WSW 56 67 30 36 - - 0.0
20/08:30pm 0.6 -10.5 -0.1 95 0.3 WSW 48 59 26 32 - - 0.0
20/08:00pm 0.5 -11.0 -0.2 95 0.3 WSW 50 61 27 33 - - 0.0
20/07:30pm 0.6 -9.5 0.2 97 0.2 WSW 43 52 23 28 - - 0.0
20/07:00pm 0.8 -8.9 0.4 97 0.2 WSW 41 50 22 27 - - 0.0
20/06:30pm 1.0 -8.7 0.3 95 0.3 SW 41 48 22 26 - - 0.0
20/06:00pm 1.5 -7.9 0.2 91 0.5 SW 39 44 21 24 - - 0.0
20/05:30pm 1.8 -8.3 0.5 91 0.5 WSW 43 52 23 28 - - 0.0
20/05:00pm 2.2 -9.6 0.7 90 0.6 WSW 52 69 28 37 - - 0.0
20/04:30pm 2.5 -7.8 0.1 84 1.0 WSW 44 56 24 30 - - 0.0
20/04:00pm 3.1 -7.9 0.8 85 1.0 WSW 48 59 26 32 - - 0.0
20/03:30pm 3.7 -7.2 1.4 85 1.0 WSW 48 61 26 33 - - 0.0
20/03:00pm 3.7 -5.9 1.3 84 1.0 WSW 41 50 22 27 - - 0.0
20/02:30pm 4.5 -7.1 1.7 82 1.2 WSW 52 61 28 33 - - 0.0
20/02:00pm 5.3 -3.8 2.0 79 1.4 WSW 39 54 21 29 - - 0.0
20/01:30pm 5.4 -4.0 2.2 80 1.4 WSW 41 50 22 27 - - 0.0
20/01:00pm 5.3 -5.4 2.7 83 1.2 WSW 48 59 26 32 - - 0.0
20/12:30pm 4.8 -6.4 2.0 82 1.2 WSW 50 63 27 34 - - 0.0
20/12:23pm 4.6 -5.7 2.6 87 0.9 WSW 46 54 25 29 - - 0.0
20/12:00pm 4.8 -1.6 3.1 89 0.8 WSW 26 35 14 19 - - 0.0
20/11:30am 4.4 -0.9 3.1 91 0.6 WSW 20 30 11 16 - - 0.0
20/11:00am 3.8 -2.0 2.5 91 0.6 W 22 30 12 16 - - 0.0
20/10:30am 3.0 -4.7 2.1 94 0.4 WSW 32 43 17 23 - - 0.0
20/10:00am 2.5 -5.8 2.1 97 0.2 W 35 44 19 24 - - 0.0
20/09:30am 2.0 -6.7 1.7 98 0.1 WSW 37 50 20 27 - - 0.0
20/09:00am 1.9 -7.2 1.6 98 0.1 WSW 39 48 21 26 - - 3.8
20/08:30am 1.7 -7.9 1.4 98 0.1 SW 41 50 22 27 - - 3.8
20/08:00am 1.3 -9.3 1.0 98 0.1 WSW 46 59 25 32 - - 3.8
20/07:30am 1.1 -8.9 0.8 98 0.1 SW 43 50 23 27 - - 3.8
20/07:00am 1.1 -7.8 0.8 98 0.1 WSW 37 46 20 25 - - 3.8
20/06:30am 0.8 -9.5 0.5 98 0.1 WSW 44 57 24 31 - - 3.8
20/06:00am 0.8 -10.2 0.5 98 0.1 WSW 48 59 26 32 - - 3.8
20/05:30am 1.0 -9.0 0.7 98 0.1 WSW 43 56 23 30 - - 3.8
20/05:00am 1.2 -7.3 0.9 98 0.1 WSW 35 48 19 26 - - 3.6
20/04:30am 1.3 -8.3 1.0 98 0.1 WSW 41 50 22 27 - - 3.6
20/04:00am 1.3 -8.3 1.0 98 0.1 SW 41 50 22 27 - - 3.6
20/03:54am 1.3 -8.9 1.0 98 0.1 WSW 44 63 24 34 - - 3.6
20/03:30am 1.3 -10.4 1.0 98 0.1 SW 52 61 28 33 - - 3.6
20/03:20am 1.3 -10.4 1.0 98 0.1 SW 52 70 28 38 - - 3.6
20/03:00am 1.5 -11.5 1.2 98 0.1 SW 59 72 32 39 - - 3.6
20/02:30am 1.6 -11.0 1.3 98 0.1 SW 57 69 31 37 - - 3.6
20/02:00am 1.5 -12.3 1.2 98 0.1 SW 63 76 34 41 - - 3.4
20/01:30am 1.5 -12.7 1.2 98 0.1 SW 65 82 35 44 - - 3.4
20/01:14am 1.2 -12.6 0.9 98 0.1 SW 63 85 34 46 - - 3.4
20/01:00am 1.1 -12.0 0.8 98 0.1 SW 59 74 32 40 - - 3.4
20/12:43am 1.2 -10.5 0.9 98 0.1 SW 52 70 28 38 - - 3.4
20/12:30am 1.1 -11.6 0.8 98 0.1 SW 57 74 31 40 - - 3.4
20/12:00am 1.3 -12.5 1.0 98 0.1 SW 63 76 34 41 - - 3.4
 
Date/Time
EST
Temp
°C
App
Temp
°C
Dew
Point
Rel
Hum
%
Delta-T
°C
Wind Press
QNH
hPa
Press
MSL
hPa
Rain
since 9 am
mm
Dir
 
Spd
km/h
Gust
km/h
Spd
kts
Gust
kts
19/11:30pm 1.1 -10.3 0.8 98 0.1 SW 50 67 27 36 - - 3.2
19/11:02pm 1.5 -10.9 1.2 98 0.1 SW 56 74 30 40 - - 2.6
19/11:00pm 1.5 -11.1 1.2 98 0.1 SW 57 74 31 40 - - 2.4
19/10:30pm 1.3 -12.1 1.0 98 0.1 SW 61 80 33 43 - - 2.2
19/10:12pm 1.2 -12.2 0.9 98 0.1 SW 61 80 33 43 - - 1.8
19/10:00pm 1.6 -11.8 1.3 98 0.1 SW 61 76 33 41 - - 1.8
19/09:41pm 1.6 -11.8 1.3 98 0.1 SW 61 82 33 44 - - 1.8
19/09:30pm 1.5 -11.9 1.2 98 0.1 SW 61 78 33 42 - - 1.8
19/09:00pm 1.6 -10.8 1.3 98 0.1 SW 56 72 30 39 - - 1.6
19/08:35pm 1.6 -10.8 1.3 98 0.1 SW 56 78 30 42 - - 1.6
19/08:30pm 1.6 -10.8 1.3 98 0.1 WSW 56 70 30 38 - - 1.6
19/08:06pm 1.8 -8.3 1.5 98 0.1 WSW 44 70 24 38 - - 1.6
19/08:00pm 1.8 -9.1 1.5 98 0.1 WSW 48 63 26 34 - - 1.4
19/07:30pm 1.6 -8.9 1.3 98 0.1 WSW 46 69 25 37 - - 0.8
19/07:21pm 1.8 -8.3 1.5 98 0.1 WSW 44 65 24 35 - - 0.2
19/07:00pm 1.8 -9.5 1.5 98 0.1 WSW 50 67 27 36 - - 0.2
19/06:30pm 1.7 -10.7 1.4 98 0.1 WSW 56 74 30 40 - - 0.2
19/06:01pm 1.6 -11.4 1.3 98 0.1 WSW 59 80 32 43 - - 0.2
19/06:00pm 1.5 -11.1 1.2 98 0.1 WSW 57 72 31 39 - - 0.2
19/05:35pm 1.5 -10.2 1.2 98 0.1 WSW 52 72 28 39 - - 0.2
19/05:30pm 1.5 -9.8 1.1 97 0.2 WSW 50 63 27 34 - - 0.2
19/05:00pm 1.4 -12.0 1.0 97 0.2 WSW 61 78 33 42 - - 0.2
19/04:41pm 1.6 -11.9 0.6 93 0.4 WSW 61 80 33 43 - - 0.2
19/04:30pm 1.8 -12.5 0.3 90 0.6 WSW 65 80 35 43 - - 0.2
19/04:00pm 2.8 -11.9 0.2 83 1.1 WSW 67 82 36 44 - - 0.2
19/03:30pm 2.6 -12.5 -0.2 82 1.1 WSW 69 91 37 49 - - 0.2
19/03:21pm 2.6 -11.4 0.0 83 1.1 WSW 63 89 34 48 - - 0.2
19/03:00pm 3.2 -10.7 0.3 81 1.2 WSW 63 82 34 44 - - 0.2
19/02:30pm 3.3 -11.4 0.0 79 1.3 WSW 67 82 36 44 - - 0.2
19/02:13pm 3.1 -12.6 -0.5 77 1.4 WSW 72 93 39 50 - - 0.2
19/02:00pm 3.1 -12.1 0.5 83 1.1 WSW 70 87 38 47 - - 0.2
19/01:31pm 2.8 -13.6 0.2 83 1.1 WSW 76 95 41 51 - - 0.2
19/01:30pm 2.8 -13.9 0.5 85 0.9 WSW 78 95 42 51 - - 0.2
19/01:04pm 2.1 -12.9 0.8 91 0.5 WSW 69 87 37 47 - - 0.2
19/01:00pm 2.6 -12.2 1.6 93 0.4 WSW 69 85 37 46 - - 0.2
19/12:42pm 1.6 -14.1 0.0 89 0.6 WSW 72 93 39 50 - - 0.2
19/12:30pm 2.5 -13.4 0.7 88 0.7 WSW 74 89 40 48 - - 0.2

Other Formats:

Comma delimited format used in spreadsheet applications
http://www.bom.gov.au/fwo/IDT60801/IDT60801.95979.axf

JavaScript Object Notation format (JSON) in row-major order
http://www.bom.gov.au/fwo/IDT60801/IDT60801.95979.json